Time;durP1;ratioP1;P1;durP2;ratioP2;P2;SDS_P1;SDS_P2;PMS_P1;PMS_P2;Temp;Humidity;BMP_temperature;BMP_pressure;BME280_temperature;BME280_humidity;BME280_pressure;Samples;Min_cycle;Max_cycle;Signal;HPM_P1;HPM_P2
2024/01/31 00:03:46;;;;;;;14.80;7.18;;;;;;;;;;8244914;28;20038;-58
2024/01/31 00:07:46;;;;;;;12.20;7.57;;;;;;;;;;8242248;28;20429;-58
2024/01/31 00:11:46;;;;;;;9.38;7.43;;;;;;;;;;8242758;28;20033;-59
2024/01/31 00:15:47;;;;;;;9.15;6.65;;;;;;;;;;8240251;28;20048;-60
2024/01/31 00:19:47;;;;;;;11.73;7.65;;;;;;;;;;8237677;28;20028;-59
2024/01/31 00:23:47;;;;;;;8.40;6.22;;;;;;;;;;8243165;28;20040;-59
2024/01/31 00:27:47;;;;;;;9.23;6.22;;;;;;;;;;8239749;28;20544;-59
2024/01/31 00:31:47;;;;;;;8.15;5.90;;;;;;;;;;8240004;28;20080;-59
2024/01/31 00:35:47;;;;;;;10.43;6.43;;;;;;;;;;8245803;28;20029;-59
2024/01/31 00:39:48;;;;;;;11.43;6.00;;;;;;;;;;8240228;28;20397;-59
2024/01/31 00:43:49;;;;;;;7.18;5.55;;;;;;;;;;8244582;28;20978;-58
2024/01/31 00:47:49;;;;;;;7.80;5.43;;;;;;;;;;8241188;28;20077;-59
2024/01/31 00:51:49;;;;;;;8.10;4.60;;;;;;;;;;8240982;28;20084;-59
2024/01/31 00:55:50;;;;;;;9.57;5.53;;;;;;;;;;8245718;28;20021;-59
2024/01/31 00:59:50;;;;;;;7.53;4.85;;;;;;;;;;8251075;28;20025;-58
2024/01/31 01:03:50;;;;;;;7.32;4.80;;;;;;;;;;8241037;28;20663;-59
2024/01/31 01:07:50;;;;;;;6.85;4.28;;;;;;;;;;8240676;28;20022;-59
2024/01/31 01:11:51;;;;;;;5.65;4.40;;;;;;;;;;8239014;28;20044;-59
2024/01/31 01:15:51;;;;;;;5.78;4.03;;;;;;;;;;8242287;28;20141;-59
2024/01/31 01:19:51;;;;;;;6.30;3.40;;;;;;;;;;8234569;28;20013;-58
2024/01/31 01:23:51;;;;;;;6.22;3.80;;;;;;;;;;8242421;28;20854;-59
2024/01/31 01:27:51;;;;;;;5.57;3.30;;;;;;;;;;8237437;28;20022;-59
2024/01/31 01:31:52;;;;;;;6.65;3.40;;;;;;;;;;8242669;28;20605;-58
2024/01/31 01:35:52;;;;;;;2.83;2.60;;;;;;;;;;8238551;28;20051;-59
2024/01/31 01:39:52;;;;;;;4.35;2.95;;;;;;;;;;8242423;28;20892;-58
2024/01/31 01:43:52;;;;;;;4.70;2.75;;;;;;;;;;8256675;28;20178;-59
2024/01/31 01:47:53;;;;;;;5.53;3.10;;;;;;;;;;8257227;28;20483;-60
2024/01/31 01:51:54;;;;;;;4.40;2.53;;;;;;;;;;8259147;28;20026;-59
2024/01/31 01:55:54;;;;;;;5.22;2.60;;;;;;;;;;8242326;28;20124;-60
2024/01/31 01:59:55;;;;;;;3.97;2.50;;;;;;;;;;8243684;28;20139;-59
2024/01/31 02:03:56;;;;;;;6.35;2.70;;;;;;;;;;8236658;28;20045;-60
2024/01/31 02:07:56;;;;;;;5.00;2.40;;;;;;;;;;8239430;28;20447;-60
2024/01/31 02:11:56;;;;;;;3.40;2.30;;;;;;;;;;8234553;28;20040;-59
2024/01/31 02:15:57;;;;;;;4.43;2.30;;;;;;;;;;8238960;28;20107;-58
2024/01/31 02:19:57;;;;;;;2.22;1.70;;;;;;;;;;8237913;28;20561;-58
2024/01/31 02:23:58;;;;;;;6.03;2.15;;;;;;;;;;8241615;28;20056;-57
2024/01/31 02:27:58;;;;;;;2.60;1.90;;;;;;;;;;8243987;28;20413;-57
2024/01/31 02:31:58;;;;;;;3.38;2.00;;;;;;;;;;8242339;28;21094;-58
2024/01/31 02:35:58;;;;;;;4.60;2.25;;;;;;;;;;8245749;28;20454;-57
2024/01/31 02:39:59;;;;;;;1.90;1.55;;;;;;;;;;8241514;28;20507;-57
2024/01/31 02:43:59;;;;;;;9.10;2.30;;;;;;;;;;8242118;28;20424;-57
2024/01/31 02:48:01;;;;;;;4.15;1.40;;;;;;;;;;8245294;28;20072;-57
2024/01/31 02:52:01;;;;;;;1.90;1.55;;;;;;;;;;8243463;28;20485;-59
2024/01/31 02:56:01;;;;;;;3.25;1.40;;;;;;;;;;8248047;28;20128;-59
2024/01/31 03:00:03;;;;;;;3.90;1.60;;;;;;;;;;8248601;28;20124;-59
2024/01/31 03:04:04;;;;;;;2.38;1.40;;;;;;;;;;8243221;28;20280;-60
2024/01/31 03:08:04;;;;;;;3.50;1.75;;;;;;;;;;8238650;28;20021;-58
2024/01/31 03:12:04;;;;;;;2.72;1.50;;;;;;;;;;8247782;28;20025;-58
2024/01/31 03:16:05;;;;;;;3.90;1.40;;;;;;;;;;8243092;28;20034;-59
2024/01/31 03:20:05;;;;;;;2.57;1.20;;;;;;;;;;8244716;28;20272;-58
2024/01/31 03:24:05;;;;;;;1.40;1.30;;;;;;;;;;8251969;28;20294;-58
2024/01/31 03:28:06;;;;;;;2.92;1.40;;;;;;;;;;8248144;28;20063;-59
2024/01/31 03:32:06;;;;;;;1.60;1.13;;;;;;;;;;8254425;28;20033;-58
2024/01/31 03:36:09;;;;;;;5.28;1.73;;;;;;;;;;8238092;28;20029;-57
2024/01/31 03:40:09;;;;;;;4.25;1.20;;;;;;;;;;8237848;28;20072;-58
2024/01/31 03:44:09;;;;;;;3.80;1.20;;;;;;;;;;8237979;28;20069;-57
2024/01/31 03:48:09;;;;;;;3.03;1.10;;;;;;;;;;8253194;28;20383;-57
2024/01/31 03:52:09;;;;;;;4.82;1.52;;;;;;;;;;8238930;28;20907;-57
2024/01/31 03:56:10;;;;;;;3.28;1.20;;;;;;;;;;8239815;28;20100;-57
2024/01/31 04:00:10;;;;;;;2.03;1.23;;;;;;;;;;8249101;28;20049;-58
2024/01/31 04:04:11;;;;;;;4.28;1.30;;;;;;;;;;8262041;28;20076;-58
2024/01/31 04:08:11;;;;;;;2.55;1.00;;;;;;;;;;8278412;28;20583;-58
2024/01/31 04:12:11;;;;;;;2.38;1.10;;;;;;;;;;8276678;28;20079;-58
2024/01/31 04:16:15;;;;;;;2.03;1.20;;;;;;;;;;8264657;28;20540;-58
2024/01/31 04:20:15;;;;;;;;;;;;;;;;;;8263348;28;20486;-60
2024/01/31 04:24:16;;;;;;;2.15;1.15;;;;;;;;;;8267713;28;20440;-59
2024/01/31 04:28:16;;;;;;;1.48;0.85;;;;;;;;;;8268529;28;20571;-58
2024/01/31 04:32:16;;;;;;;2.60;1.00;;;;;;;;;;8267950;28;20171;-58
2024/01/31 04:36:16;;;;;;;2.92;1.10;;;;;;;;;;8263756;28;20059;-59
2024/01/31 04:40:16;;;;;;;2.53;1.13;;;;;;;;;;8265017;28;20486;-59
2024/01/31 04:44:16;;;;;;;3.53;1.02;;;;;;;;;;8272459;28;20033;-59
2024/01/31 04:48:19;;;;;;;3.17;1.05;;;;;;;;;;8273946;28;20041;-58
2024/01/31 04:52:19;;;;;;;2.63;1.02;;;;;;;;;;8274288;28;20060;-58
2024/01/31 04:56:19;;;;;;;1.90;0.85;;;;;;;;;;8252913;28;20021;-58
2024/01/31 05:00:23;;;;;;;1.95;1.20;;;;;;;;;;8246690;28;20029;-58
2024/01/31 05:04:25;;;;;;;;;;;;;;;;;;8248344;28;20018;-57
2024/01/31 05:08:31;;;;;;;4.65;1.00;;;;;;;;;;8245084;28;20007;-59
2024/01/31 05:12:31;;;;;;;1.77;1.00;;;;;;;;;;8246855;28;20373;-59
2024/01/31 05:16:31;;;;;;;3.58;0.70;;;;;;;;;;8249238;28;20913;-58
2024/01/31 05:20:31;;;;;;;0.80;0.80;;;;;;;;;;8243745;28;20021;-58
2024/01/31 05:24:32;;;;;;;1.83;0.90;;;;;;;;;;8248161;28;20252;-58
2024/01/31 05:28:32;;;;;;;2.78;0.90;;;;;;;;;;8245485;28;20484;-56
2024/01/31 05:32:32;;;;;;;1.13;0.88;;;;;;;;;;8238749;28;20068;-58
2024/01/31 05:36:32;;;;;;;0.80;0.80;;;;;;;;;;8245018;28;20493;-59
2024/01/31 05:40:32;;;;;;;2.85;1.02;;;;;;;;;;8248879;28;20029;-59
2024/01/31 05:44:32;;;;;;;3.03;1.00;;;;;;;;;;8235409;28;20489;-58
2024/01/31 05:48:33;;;;;;;2.05;0.80;;;;;;;;;;8250843;28;20038;-58
2024/01/31 05:52:33;;;;;;;1.70;1.45;;;;;;;;;;8247726;28;20454;-58
2024/01/31 05:56:35;;;;;;;3.42;1.10;;;;;;;;;;8244163;28;20029;-59
2024/01/31 06:00:35;;;;;;;2.47;0.85;;;;;;;;;;8240120;28;20552;-59
2024/01/31 06:04:35;;;;;;;2.53;0.82;;;;;;;;;;8243063;28;20391;-58
2024/01/31 06:08:35;;;;;;;1.63;1.05;;;;;;;;;;8237148;28;20603;-58
2024/01/31 06:12:35;;;;;;;1.75;0.90;;;;;;;;;;8246505;28;21902;-59
2024/01/31 06:16:36;;;;;;;4.00;1.23;;;;;;;;;;8241090;28;20884;-58
2024/01/31 06:20:40;;;;;;;1.55;0.90;;;;;;;;;;8242673;28;20425;-58
2024/01/31 06:24:40;;;;;;;3.00;1.15;;;;;;;;;;8242432;28;20044;-58
2024/01/31 06:28:40;;;;;;;4.10;1.10;;;;;;;;;;8236791;28;20913;-58
2024/01/31 06:32:47;;;;;;;0.97;0.87;;;;;;;;;;8239876;28;20068;-58
2024/01/31 06:36:47;;;;;;;2.53;1.30;;;;;;;;;;8254669;28;20026;-58
2024/01/31 06:40:47;;;;;;;3.08;1.30;;;;;;;;;;8250169;28;20422;-59
2024/01/31 06:44:48;;;;;;;2.40;1.20;;;;;;;;;;8246849;28;20052;-58
2024/01/31 06:48:49;;;;;;;5.07;1.67;;;;;;;;;;8249340;28;20036;-58
2024/01/31 06:52:49;;;;;;;1.60;1.30;;;;;;;;;;8259140;28;20033;-58
2024/01/31 06:56:49;;;;;;;2.70;1.60;;;;;;;;;;8264622;28;20056;-57
2024/01/31 07:00:53;;;;;;;2.70;1.50;;;;;;;;;;8257166;28;20044;-58
2024/01/31 07:04:54;;;;;;;;;;;;;;;;;;8261711;28;20294;-58
2024/01/31 07:08:54;;;;;;;1.35;1.17;;;;;;;;;;8261514;28;20465;-58
2024/01/31 07:12:54;;;;;;;2.50;1.30;;;;;;;;;;8261563;28;20401;-58
2024/01/31 07:16:55;;;;;;;1.30;1.20;;;;;;;;;;8262246;28;20789;-57
2024/01/31 07:20:55;;;;;;;4.93;1.00;;;;;;;;;;8257652;28;20029;-58
2024/01/31 07:24:55;;;;;;;1.45;0.90;;;;;;;;;;8259992;28;20041;-59
2024/01/31 07:28:56;;;;;;;2.55;0.88;;;;;;;;;;8251894;28;20677;-57
2024/01/31 07:32:56;;;;;;;2.65;1.52;;;;;;;;;;8256469;28;20152;-58
2024/01/31 07:36:56;;;;;;;1.48;0.80;;;;;;;;;;8259187;28;20033;-59
2024/01/31 07:40:56;;;;;;;1.25;1.00;;;;;;;;;;8254865;28;20075;-59
2024/01/31 07:44:57;;;;;;;1.98;1.35;;;;;;;;;;8261703;28;20057;-57
2024/01/31 07:48:57;;;;;;;1.23;1.13;;;;;;;;;;8262312;28;20307;-58
2024/01/31 07:52:57;;;;;;;1.88;1.42;;;;;;;;;;8262594;28;20049;-58
2024/01/31 07:56:57;;;;;;;4.72;1.90;;;;;;;;;;8263176;28;20433;-59
2024/01/31 08:00:57;;;;;;;2.88;1.98;;;;;;;;;;8261448;28;20064;-58
2024/01/31 08:04:58;;;;;;;4.13;2.10;;;;;;;;;;8261758;28;20072;-59
2024/01/31 08:08:58;;;;;;;2.27;1.10;;;;;;;;;;8283999;28;20021;-57
2024/01/31 08:12:59;;;;;;;3.25;1.20;;;;;;;;;;8280281;28;20340;-59
2024/01/31 08:16:59;;;;;;;2.92;1.20;;;;;;;;;;8275404;28;20774;-61
2024/01/31 08:20:59;;;;;;;1.30;0.80;;;;;;;;;;8267929;28;20351;-59
2024/01/31 08:24:59;;;;;;;1.27;0.93;;;;;;;;;;8275057;28;20025;-59
2024/01/31 08:28:59;;;;;;;1.40;0.90;;;;;;;;;;8272378;28;20457;-59
2024/01/31 08:33:00;;;;;;;1.02;0.80;;;;;;;;;;8269587;28;20041;-59
2024/01/31 08:37:00;;;;;;;1.67;1.00;;;;;;;;;;8271859;28;20025;-56
2024/01/31 08:41:02;;;;;;;1.35;0.95;;;;;;;;;;8257378;28;20501;-59
2024/01/31 08:45:02;;;;;;;1.58;0.98;;;;;;;;;;8257690;28;20256;-57
2024/01/31 08:49:02;;;;;;;0.87;0.80;;;;;;;;;;8260041;28;20565;-57
2024/01/31 08:53:02;;;;;;;1.13;0.80;;;;;;;;;;8255916;28;20268;-56
2024/01/31 08:57:02;;;;;;;1.70;1.00;;;;;;;;;;8260844;28;20281;-58
2024/01/31 09:01:03;;;;;;;1.58;1.10;;;;;;;;;;8256936;28;20789;-58
2024/01/31 09:05:03;;;;;;;1.08;0.85;;;;;;;;;;8258046;28;20060;-58
2024/01/31 09:09:04;;;;;;;1.50;0.70;;;;;;;;;;8257043;28;21037;-58
2024/01/31 09:13:04;;;;;;;2.88;1.13;;;;;;;;;;8259392;28;20021;-58
2024/01/31 09:17:04;;;;;;;2.25;0.90;;;;;;;;;;8260558;28;20471;-59
2024/01/31 09:21:05;;;;;;;5.20;1.13;;;;;;;;;;8245524;28;20032;-58
2024/01/31 09:25:06;;;;;;;3.15;1.00;;;;;;;;;;8256730;28;20024;-58
2024/01/31 09:29:06;;;;;;;1.95;0.80;;;;;;;;;;8262032;28;20084;-59
2024/01/31 09:33:06;;;;;;;2.15;0.95;;;;;;;;;;8258226;28;20130;-59
2024/01/31 09:37:06;;;;;;;5.82;0.90;;;;;;;;;;8258180;28;20556;-59
2024/01/31 09:41:06;;;;;;;2.97;0.73;;;;;;;;;;8252542;28;20149;-60
2024/01/31 09:45:10;;;;;;;1.87;0.80;;;;;;;;;;8255273;28;20807;-59
2024/01/31 09:49:10;;;;;;;3.22;0.98;;;;;;;;;;8255661;28;20269;-58
2024/01/31 09:53:10;;;;;;;2.42;0.70;;;;;;;;;;8256866;28;20036;-58
2024/01/31 09:57:11;;;;;;;1.13;0.93;;;;;;;;;;8247653;28;20034;-58
2024/01/31 10:01:12;;;;;;;0.70;0.70;;;;;;;;;;8252593;28;20037;-57
2024/01/31 10:05:12;;;;;;;2.55;0.70;;;;;;;;;;8251526;28;20024;-58
2024/01/31 10:09:13;;;;;;;1.27;0.90;;;;;;;;;;8259183;28;20057;-58
2024/01/31 10:13:16;;;;;;;2.10;0.85;;;;;;;;;;8255440;28;20021;-59
2024/01/31 10:17:16;;;;;;;0.88;0.80;;;;;;;;;;8265594;28;20430;-58
2024/01/31 10:21:19;;;;;;;2.88;1.00;;;;;;;;;;8259047;28;20126;-60
2024/01/31 10:25:19;;;;;;;0.85;0.70;;;;;;;;;;8260601;28;20025;-58
2024/01/31 10:29:20;;;;;;;1.73;0.80;;;;;;;;;;8267918;28;20079;-59
2024/01/31 10:33:20;;;;;;;2.70;0.90;;;;;;;;;;8276063;28;20072;-60
2024/01/31 10:37:21;;;;;;;1.83;0.90;;;;;;;;;;8279163;28;20029;-60
2024/01/31 10:41:22;;;;;;;1.95;0.80;;;;;;;;;;8266511;28;20025;-60
2024/01/31 10:45:22;;;;;;;1.30;0.82;;;;;;;;;;8264507;28;20034;-59
2024/01/31 10:49:22;;;;;;;1.35;0.85;;;;;;;;;;8265163;28;20735;-59
2024/01/31 10:53:23;;;;;;;4.03;0.95;;;;;;;;;;8262640;28;20095;-60
2024/01/31 10:57:24;;;;;;;1.23;0.90;;;;;;;;;;8262405;28;20029;-59
2024/01/31 11:01:29;;;;;;;2.72;1.83;;;;;;;;;;8265607;28;20041;-59
2024/01/31 11:05:30;;;;;;;2.88;1.55;;;;;;;;;;8264523;28;20033;-59
2024/01/31 11:09:31;;;;;;;1.02;0.80;;;;;;;;;;8267911;28;20490;-59
2024/01/31 11:13:34;;;;;;;2.05;0.98;;;;;;;;;;8286168;28;20017;-59
2024/01/31 11:17:35;;;;;;;5.00;1.03;;;;;;;;;;8283311;28;20148;-59
2024/01/31 11:21:38;;;;;;;2.58;1.02;;;;;;;;;;8276345;28;20057;-59
2024/01/31 11:25:38;;;;;;;4.40;1.10;;;;;;;;;;8275990;28;20040;-58
2024/01/31 11:29:39;;;;;;;1.60;1.20;;;;;;;;;;8273775;28;20956;-58
2024/01/31 11:33:39;;;;;;;2.57;1.10;;;;;;;;;;8275313;28;20126;-59
2024/01/31 11:37:39;;;;;;;1.23;0.90;;;;;;;;;;8275316;28;20355;-59
2024/01/31 11:41:40;;;;;;;2.83;0.85;;;;;;;;;;8264554;28;20031;-58
2024/01/31 11:45:40;;;;;;;2.20;1.00;;;;;;;;;;8260336;28;20049;-58
2024/01/31 11:49:40;;;;;;;1.63;1.10;;;;;;;;;;8255208;28;20120;-59
2024/01/31 11:53:40;;;;;;;1.27;1.00;;;;;;;;;;8259101;28;20119;-59
2024/01/31 11:57:40;;;;;;;3.28;1.15;;;;;;;;;;8251384;28;20033;-58
2024/01/31 12:01:41;;;;;;;5.78;1.40;;;;;;;;;;8253349;28;20034;-58
2024/01/31 12:05:41;;;;;;;2.70;0.90;;;;;;;;;;8256736;28;20055;-58
2024/01/31 12:09:41;;;;;;;4.45;0.90;;;;;;;;;;8255438;28;20426;-59
2024/01/31 12:13:43;;;;;;;1.10;0.90;;;;;;;;;;8274614;28;20067;-59
2024/01/31 12:17:44;;;;;;;1.52;1.02;;;;;;;;;;8268057;28;20853;-58
2024/01/31 12:21:44;;;;;;;1.10;0.80;;;;;;;;;;8246188;28;20737;-59
2024/01/31 12:25:44;;;;;;;1.33;0.88;;;;;;;;;;8242370;28;20414;-59
2024/01/31 12:29:46;;;;;;;1.07;0.70;;;;;;;;;;8244997;28;20930;-59
2024/01/31 12:33:46;;;;;;;1.23;0.80;;;;;;;;;;8246968;28;20290;-60
2024/01/31 12:37:46;;;;;;;3.03;1.40;;;;;;;;;;8248656;28;20092;-59
2024/01/31 12:41:47;;;;;;;2.22;0.90;;;;;;;;;;8247589;28;20395;-59
2024/01/31 12:45:47;;;;;;;1.85;0.80;;;;;;;;;;8243905;28;20037;-58
2024/01/31 12:49:48;;;;;;;3.28;1.40;;;;;;;;;;8251146;28;20037;-59
2024/01/31 12:53:49;;;;;;;3.45;0.90;;;;;;;;;;8259336;28;20120;-59
2024/01/31 12:57:49;;;;;;;4.07;0.80;;;;;;;;;;8258126;28;20053;-59
2024/01/31 13:01:50;;;;;;;1.98;0.80;;;;;;;;;;8259627;28;20041;-59
2024/01/31 13:05:50;;;;;;;2.72;1.20;;;;;;;;;;8259390;28;20029;-59
2024/01/31 13:09:50;;;;;;;67.60;28.10;;;;;;;;;;8259422;28;20025;-61
2024/01/31 13:13:51;;;;;;;12.63;10.23;;;;;;;;;;8258666;28;20053;-60
2024/01/31 13:17:51;;;;;;;167.38;106.43;;;;;;;;;;8256114;28;20152;-59
2024/01/31 13:21:52;;;;;;;35.60;28.27;;;;;;;;;;8251093;28;20445;-59
2024/01/31 13:25:52;;;;;;;4.32;3.45;;;;;;;;;;8249544;28;20493;-59
2024/01/31 13:29:52;;;;;;;4.50;2.45;;;;;;;;;;8243010;28;20025;-60
2024/01/31 13:33:53;;;;;;;5.32;2.25;;;;;;;;;;8247529;28;20033;-59
2024/01/31 13:37:55;;;;;;;1.88;1.15;;;;;;;;;;8234861;28;20021;-60
2024/01/31 13:41:55;;;;;;;4.50;1.50;;;;;;;;;;8244712;28;20045;-60
2024/01/31 13:45:55;;;;;;;6.82;5.07;;;;;;;;;;8249249;28;20076;-60
2024/01/31 13:49:56;;;;;;;8.30;6.95;;;;;;;;;;8247185;28;20470;-60
2024/01/31 13:53:56;;;;;;;8.38;6.25;;;;;;;;;;8245894;28;20157;-60
2024/01/31 13:57:56;;;;;;;5.47;4.70;;;;;;;;;;8246762;28;20062;-60
2024/01/31 14:01:56;;;;;;;6.07;4.47;;;;;;;;;;8246291;28;20087;-59
2024/01/31 14:05:57;;;;;;;9.33;6.67;;;;;;;;;;8248139;28;20025;-59
2024/01/31 14:09:57;;;;;;;4.47;3.90;;;;;;;;;;8244056;28;20745;-59
2024/01/31 14:13:57;;;;;;;2.93;1.50;;;;;;;;;;8245991;28;20022;-59
2024/01/31 14:17:57;;;;;;;3.13;1.30;;;;;;;;;;8244811;28;20764;-58
2024/01/31 14:22:00;;;;;;;3.83;2.30;;;;;;;;;;8239664;28;20033;-59
2024/01/31 14:26:00;;;;;;;1.60;1.42;;;;;;;;;;8244997;28;20932;-60
2024/01/31 14:30:00;;;;;;;2.45;1.40;;;;;;;;;;8243691;28;20161;-59
2024/01/31 14:34:00;;;;;;;3.47;1.73;;;;;;;;;;8247542;28;20040;-59
2024/01/31 14:38:00;;;;;;;4.78;2.47;;;;;;;;;;8242980;28;20030;-59
2024/01/31 14:42:00;;;;;;;2.17;1.80;;;;;;;;;;8243792;28;20030;-59
2024/01/31 14:46:01;;;;;;;3.33;2.85;;;;;;;;;;8245751;28;20045;-59
2024/01/31 14:50:01;;;;;;;2.33;1.40;;;;;;;;;;8250783;28;20025;-59
2024/01/31 14:54:01;;;;;;;3.90;1.60;;;;;;;;;;8249152;28;20294;-59
2024/01/31 14:58:02;;;;;;;1.73;1.25;;;;;;;;;;8249937;28;20111;-60
2024/01/31 15:02:02;;;;;;;2.47;1.02;;;;;;;;;;8247464;28;20031;-59
2024/01/31 15:06:03;;;;;;;1.52;1.23;;;;;;;;;;8251826;28;20489;-59
2024/01/31 15:10:05;;;;;;;4.53;1.60;;;;;;;;;;8244706;28;20045;-59
2024/01/31 15:14:05;;;;;;;2.20;1.30;;;;;;;;;;8263896;28;20103;-60
2024/01/31 15:18:06;;;;;;;2.42;1.35;;;;;;;;;;8262923;28;20042;-59
2024/01/31 15:22:06;;;;;;;4.45;1.60;;;;;;;;;;8253123;28;20594;-56
2024/01/31 15:26:06;;;;;;;2.70;1.20;;;;;;;;;;8251848;28;21068;-58
2024/01/31 15:30:07;;;;;;;1.65;1.10;;;;;;;;;;8241048;28;20032;-58
2024/01/31 15:34:08;;;;;;;2.35;1.20;;;;;;;;;;8249918;28;20134;-58
2024/01/31 15:38:08;;;;;;;2.80;1.02;;;;;;;;;;8249467;28;21739;-58
2024/01/31 15:42:08;;;;;;;1.95;1.30;;;;;;;;;;8248932;28;21318;-58
2024/01/31 15:46:08;;;;;;;1.15;1.00;;;;;;;;;;8241820;28;20176;-58
2024/01/31 15:50:09;;;;;;;2.17;1.77;;;;;;;;;;8250993;28;21489;-58
2024/01/31 15:54:09;;;;;;;2.30;1.90;;;;;;;;;;8262237;28;20339;-58
2024/01/31 15:58:09;;;;;;;3.00;1.27;;;;;;;;;;8259016;28;20565;-59
2024/01/31 16:02:09;;;;;;;6.00;3.22;;;;;;;;;;8259188;28;21858;-60
2024/01/31 16:06:09;;;;;;;5.63;3.00;;;;;;;;;;8260394;28;22428;-59
2024/01/31 16:10:10;;;;;;;1.58;1.48;;;;;;;;;;8261926;28;20029;-60
2024/01/31 16:14:10;;;;;;;1.17;1.08;;;;;;;;;;8258671;28;20052;-59
2024/01/31 16:18:10;;;;;;;1.95;1.30;;;;;;;;;;8260723;28;20076;-59
2024/01/31 16:22:10;;;;;;;1.60;1.17;;;;;;;;;;8255368;28;20554;-58
2024/01/31 16:26:10;;;;;;;2.05;1.20;;;;;;;;;;8248175;28;20131;-59
2024/01/31 16:30:11;;;;;;;3.60;1.10;;;;;;;;;;8255392;28;20028;-59
2024/01/31 16:34:17;;;;;;;2.13;1.20;;;;;;;;;;8253984;28;21675;-59
2024/01/31 16:38:17;;;;;;;2.15;1.33;;;;;;;;;;8247793;28;20378;-60
2024/01/31 16:42:17;;;;;;;1.40;1.00;;;;;;;;;;8249464;28;20409;-60
2024/01/31 16:46:19;;;;;;;2.25;1.13;;;;;;;;;;8253062;28;20041;-59
2024/01/31 16:50:20;;;;;;;3.25;1.20;;;;;;;;;;8250162;28;20017;-59
2024/01/31 16:54:20;;;;;;;2.45;1.20;;;;;;;;;;8253154;28;20035;-58
2024/01/31 16:58:20;;;;;;;1.33;1.05;;;;;;;;;;8257191;28;20019;-58
2024/01/31 17:02:20;;;;;;;2.70;1.38;;;;;;;;;;8248411;28;20030;-58
2024/01/31 17:06:21;;;;;;;1.98;1.40;;;;;;;;;;8262832;28;20031;-60
2024/01/31 17:10:21;;;;;;;2.43;2.20;;;;;;;;;;8269701;28;20119;-60
2024/01/31 17:14:21;;;;;;;2.50;2.20;;;;;;;;;;8260361;28;20982;-58
2024/01/31 17:18:21;;;;;;;1.92;1.50;;;;;;;;;;8265551;28;20037;-59
2024/01/31 17:22:21;;;;;;;2.47;1.77;;;;;;;;;;8260542;28;20032;-60
2024/01/31 17:26:21;;;;;;;1.95;1.40;;;;;;;;;;8265434;28;20035;-59
2024/01/31 17:30:22;;;;;;;1.70;1.27;;;;;;;;;;8266525;28;20638;-59
2024/01/31 17:34:22;;;;;;;1.63;1.52;;;;;;;;;;8259170;28;20561;-59
2024/01/31 17:38:22;;;;;;;1.73;1.52;;;;;;;;;;8247061;28;20461;-59
2024/01/31 17:42:22;;;;;;;2.50;1.58;;;;;;;;;;8250784;28;20588;-59
2024/01/31 17:46:23;;;;;;;2.20;1.90;;;;;;;;;;8255308;28;20507;-59
2024/01/31 17:50:23;;;;;;;3.97;2.70;;;;;;;;;;8268824;28;20033;-57
2024/01/31 17:54:23;;;;;;;6.32;3.45;;;;;;;;;;8263444;28;20481;-59
2024/01/31 17:58:23;;;;;;;6.95;3.17;;;;;;;;;;8265545;28;20113;-59
2024/01/31 18:02:24;;;;;;;4.60;2.13;;;;;;;;;;8272398;28;20575;-58
2024/01/31 18:06:24;;;;;;;12.07;4.70;;;;;;;;;;8251858;28;20397;-58
2024/01/31 18:10:24;;;;;;;20.47;8.87;;;;;;;;;;8251092;28;20828;-59
2024/01/31 18:14:24;;;;;;;20.75;9.75;;;;;;;;;;8251972;28;21072;-59
2024/01/31 18:18:25;;;;;;;23.27;8.73;;;;;;;;;;8248040;28;21292;-57
2024/01/31 18:22:25;;;;;;;16.48;7.60;;;;;;;;;;8237615;28;20123;-60
2024/01/31 18:26:27;;;;;;;9.70;5.10;;;;;;;;;;8254214;28;20033;-59
2024/01/31 18:30:27;;;;;;;13.38;5.95;;;;;;;;;;8254142;28;20419;-58
2024/01/31 18:34:27;;;;;;;13.38;7.13;;;;;;;;;;8255721;28;20381;-59
2024/01/31 18:38:28;;;;;;;6.20;4.40;;;;;;;;;;8257113;28;20029;-58
2024/01/31 18:42:28;;;;;;;14.48;8.18;;;;;;;;;;8257526;28;20120;-58
2024/01/31 18:46:28;;;;;;;13.20;7.07;;;;;;;;;;8257115;28;20052;-57
2024/01/31 18:50:28;;;;;;;11.25;5.43;;;;;;;;;;8251406;28;20080;-59
2024/01/31 18:54:29;;;;;;;13.52;7.32;;;;;;;;;;8255261;28;20142;-59
2024/01/31 18:58:30;;;;;;;8.35;4.93;;;;;;;;;;8258401;28;20448;-58
2024/01/31 19:02:30;;;;;;;4.35;2.33;;;;;;;;;;8254830;28;20391;-59
2024/01/31 19:06:30;;;;;;;3.83;2.20;;;;;;;;;;8253779;28;20026;-59
2024/01/31 19:10:32;;;;;;;4.95;2.53;;;;;;;;;;8254871;28;20174;-59
2024/01/31 19:14:33;;;;;;;5.88;3.03;;;;;;;;;;8260259;28;20033;-59
2024/01/31 19:18:37;;;;;;;4.03;2.00;;;;;;;;;;8256530;28;20556;-58
2024/01/31 19:22:44;;;;;;;3.95;2.50;;;;;;;;;;8253487;28;20145;-57
2024/01/31 19:26:44;;;;;;;6.53;3.60;;;;;;;;;;8255141;28;20064;-57
2024/01/31 19:30:45;;;;;;;4.40;2.40;;;;;;;;;;8257537;28;20072;-58
2024/01/31 19:34:45;;;;;;;5.40;2.08;;;;;;;;;;8255228;28;20091;-58
2024/01/31 19:38:45;;;;;;;6.18;2.45;;;;;;;;;;8251706;28;20021;-58
2024/01/31 19:42:45;;;;;;;11.65;4.20;;;;;;;;;;8253163;28;20533;-59
2024/01/31 19:46:59;;;;;;;10.25;4.70;;;;;;;;;;8257690;28;20842;-58
2024/01/31 19:50:59;;;;;;;5.10;2.42;;;;;;;;;;8246274;28;20029;-58
2024/01/31 19:54:59;;;;;;;7.47;3.10;;;;;;;;;;8255304;28;20031;-58
2024/01/31 19:58:59;;;;;;;3.53;2.15;;;;;;;;;;8274773;28;20028;-59
2024/01/31 20:02:59;;;;;;;5.95;2.20;;;;;;;;;;8273613;28;20033;-60
2024/01/31 20:07:01;;;;;;;5.65;2.88;;;;;;;;;;8270716;28;20017;-58
2024/01/31 20:11:01;;;;;;;7.38;2.83;;;;;;;;;;8269699;28;20041;-59
2024/01/31 20:15:01;;;;;;;7.40;2.93;;;;;;;;;;8269478;28;20588;-61
2024/01/31 20:19:02;;;;;;;5.82;2.30;;;;;;;;;;8267295;28;20370;-58
2024/01/31 20:23:02;;;;;;;7.45;3.08;;;;;;;;;;8264848;28;20044;-58
2024/01/31 20:27:03;;;;;;;7.03;3.83;;;;;;;;;;8257236;28;20029;-59
2024/01/31 20:31:03;;;;;;;9.00;3.97;;;;;;;;;;8267721;28;20275;-59
2024/01/31 20:35:03;;;;;;;8.60;3.92;;;;;;;;;;8269799;28;20329;-59
2024/01/31 20:39:03;;;;;;;6.63;3.75;;;;;;;;;;8269313;28;20604;-58
2024/01/31 20:43:04;;;;;;;9.63;4.30;;;;;;;;;;8270651;28;20032;-58
2024/01/31 20:47:04;;;;;;;8.68;5.15;;;;;;;;;;8274069;28;20565;-59
2024/01/31 20:51:05;;;;;;;8.70;4.32;;;;;;;;;;8265730;28;20029;-58
2024/01/31 20:55:05;;;;;;;10.45;4.90;;;;;;;;;;8274236;28;20548;-59
2024/01/31 20:59:05;;;;;;;7.63;4.10;;;;;;;;;;8259659;28;20174;-59
2024/01/31 21:03:06;;;;;;;8.23;4.95;;;;;;;;;;8246442;28;20083;-59
2024/01/31 21:07:06;;;;;;;16.65;6.28;;;;;;;;;;8251185;28;20026;-59
2024/01/31 21:11:06;;;;;;;10.95;5.60;;;;;;;;;;8248820;28;20030;-58
2024/01/31 21:15:10;;;;;;;14.40;7.10;;;;;;;;;;8252058;28;20025;-60
2024/01/31 21:19:10;;;;;;;10.60;5.47;;;;;;;;;;8252796;28;20360;-59
2024/01/31 21:23:10;;;;;;;12.90;4.80;;;;;;;;;;8239169;28;20079;-59
2024/01/31 21:27:12;;;;;;;10.82;4.90;;;;;;;;;;8249156;28;20111;-58
2024/01/31 21:31:13;;;;;;;8.40;4.43;;;;;;;;;;8249405;28;20371;-60
2024/01/31 21:35:13;;;;;;;6.28;3.80;;;;;;;;;;8247599;28;20559;-58
2024/01/31 21:39:14;;;;;;;6.75;3.30;;;;;;;;;;8250429;28;20049;-60
2024/01/31 21:43:14;;;;;;;6.65;3.83;;;;;;;;;;8246143;28;20123;-59
2024/01/31 21:47:14;;;;;;;6.47;3.40;;;;;;;;;;8248512;28;20111;-59
2024/01/31 21:51:14;;;;;;;4.45;3.10;;;;;;;;;;8250306;28;20036;-61
2024/01/31 21:55:15;;;;;;;3.20;2.80;;;;;;;;;;8245478;28;20017;-59
2024/01/31 21:59:15;;;;;;;3.70;2.30;;;;;;;;;;8245415;28;21022;-59
2024/01/31 22:03:16;;;;;;;7.03;2.90;;;;;;;;;;8250355;28;20287;-58
2024/01/31 22:07:17;;;;;;;5.25;2.90;;;;;;;;;;8251009;28;20021;-59
2024/01/31 22:11:17;;;;;;;3.30;2.55;;;;;;;;;;8245941;28;20092;-57
2024/01/31 22:15:17;;;;;;;3.70;2.70;;;;;;;;;;8252091;28;20029;-57
2024/01/31 22:19:17;;;;;;;3.47;2.83;;;;;;;;;;8250485;28;20026;-59
2024/01/31 22:23:18;;;;;;;5.45;2.80;;;;;;;;;;8241668;28;20033;-60
2024/01/31 22:27:18;;;;;;;3.90;2.30;;;;;;;;;;8243121;28;20322;-59
2024/01/31 22:31:18;;;;;;;2.58;2.17;;;;;;;;;;8248423;28;20296;-59
2024/01/31 22:35:18;;;;;;;3.88;2.50;;;;;;;;;;8248394;28;20090;-59
2024/01/31 22:39:18;;;;;;;4.03;2.42;;;;;;;;;;8246407;28;20642;-59
2024/01/31 22:43:19;;;;;;;4.25;2.65;;;;;;;;;;8248674;28;20106;-59
2024/01/31 22:47:19;;;;;;;5.30;2.72;;;;;;;;;;8249919;28;20045;-59
2024/01/31 22:51:19;;;;;;;3.45;2.38;;;;;;;;;;8247130;28;20029;-59
2024/01/31 22:55:19;;;;;;;2.75;2.13;;;;;;;;;;8246123;28;20489;-60
2024/01/31 22:59:19;;;;;;;4.10;2.25;;;;;;;;;;8243838;28;20030;-60
2024/01/31 23:03:24;;;;;;;3.20;2.17;;;;;;;;;;8245808;28;20766;-59
2024/01/31 23:07:24;;;;;;;3.60;2.10;;;;;;;;;;8244995;28;20426;-59
2024/01/31 23:11:25;;;;;;;3.33;2.03;;;;;;;;;;8242841;28;20033;-59
2024/01/31 23:15:25;;;;;;;5.28;2.30;;;;;;;;;;8248786;28;20037;-59
2024/01/31 23:19:27;;;;;;;4.35;2.00;;;;;;;;;;8256846;28;20030;-60
2024/01/31 23:23:27;;;;;;;3.15;1.67;;;;;;;;;;8269013;28;20544;-61
2024/01/31 23:27:27;;;;;;;4.13;2.38;;;;;;;;;;8258352;28;20037;-59
2024/01/31 23:31:27;;;;;;;3.90;2.13;;;;;;;;;;8254634;28;20029;-63
2024/01/31 23:35:29;;;;;;;4.72;1.95;;;;;;;;;;8249508;28;20028;-59
2024/01/31 23:39:29;;;;;;;3.55;1.77;;;;;;;;;;8253762;28;20053;-59
2024/01/31 23:43:29;;;;;;;2.88;2.30;;;;;;;;;;8254558;28;20061;-60
2024/01/31 23:47:29;;;;;;;3.10;1.98;;;;;;;;;;8252958;28;20037;-60
2024/01/31 23:51:30;;;;;;;4.38;2.20;;;;;;;;;;8255935;28;20030;-59
2024/01/31 23:55:30;;;;;;;3.83;2.23;;;;;;;;;;8255841;28;20037;-59
2024/01/31 23:59:30;;;;;;;3.90;2.00;;;;;;;;;;8256725;28;20287;-60
